Time;durP1;ratioP1;P1;durP2;ratioP2;P2;SDS_P1;SDS_P2;PMS_P1;PMS_P2;Temp;Humidity;BMP_temperature;BMP_pressure;BME280_temperature;BME280_humidity;BME280_pressure;Samples;Min_cycle;Max_cycle;Signal;HPM_P1;HPM_P2
2023/04/10 00:00:40;;;;;;;0.35;0.35;;;;;;;7.67;100.00;99939.34;4995742;28;20443;-82
2023/04/10 00:03:06;;;;;;;0.40;0.40;;;;;;;7.61;100.00;99940.91;4995708;28;20058;-81
2023/04/10 00:05:32;;;;;;;0.40;0.40;;;;;;;7.43;100.00;99901.03;4995395;28;20050;-81
2023/04/10 00:07:58;;;;;;;0.40;0.40;;;;;;;7.64;100.00;99929.00;4995174;28;20443;-82
2023/04/10 00:10:25;;;;;;;0.40;0.40;;;;;;;7.62;100.00;99929.22;4995351;28;20026;-82
2023/04/10 00:12:52;;;;;;;0.40;0.40;;;;;;;7.60;100.00;99922.38;4995206;28;20429;-82
2023/04/10 00:15:18;;;;;;;0.40;0.40;;;;;;;7.59;100.00;99915.31;4995434;28;20031;-81
2023/04/10 00:17:44;;;;;;;0.40;0.40;;;;;;;7.58;100.00;99911.00;4995224;28;20042;-82
2023/04/10 00:20:10;;;;;;;0.40;0.40;;;;;;;7.49;100.00;99908.38;4979308;28;20038;-82
2023/04/10 00:22:36;;;;;;;0.40;0.40;;;;;;;7.48;100.00;99906.69;5011259;28;20049;-82
2023/04/10 00:25:01;;;;;;;0.40;0.40;;;;;;;7.42;100.00;99910.09;4979082;28;20031;-82
2023/04/10 00:27:27;;;;;;;0.40;0.40;;;;;;;7.40;100.00;99920.13;4995194;28;20061;-83
2023/04/10 00:29:52;;;;;;;0.30;0.30;;;;;;;7.33;100.00;99912.97;4996159;28;20031;-83
2023/04/10 00:32:18;;;;;;;0.30;0.30;;;;;;;7.34;100.00;99920.84;4995141;28;20034;-84
2023/04/10 00:34:46;;;;;;;0.40;0.40;;;;;;;7.41;100.00;99923.63;4994962;28;20036;-83
2023/04/10 00:37:11;;;;;;;0.40;0.40;;;;;;;7.48;100.00;99917.41;4995046;28;20034;-82
2023/04/10 00:39:37;;;;;;;0.30;0.30;;;;;;;7.51;100.00;99920.72;4994919;28;20041;-82
2023/04/10 00:42:08;;;;;;;0.40;0.40;;;;;;;7.50;100.00;99911.88;5011152;28;20032;-82
2023/04/10 00:44:36;;;;;;;0.40;0.40;;;;;;;7.51;100.00;99912.72;4994793;28;20088;-83
2023/04/10 00:47:03;;;;;;;0.40;0.40;;;;;;;7.52;100.00;99907.19;4994495;28;20031;-82
2023/04/10 00:49:30;;;;;;;0.40;0.40;;;;;;;7.51;100.00;99896.66;4978441;28;20042;-84
2023/04/10 00:51:56;;;;;;;0.30;0.30;;;;;;;7.54;100.00;99904.31;4994848;28;20041;-83
2023/04/10 00:54:22;;;;;;;0.40;0.40;;;;;;;7.52;100.00;99893.81;4994995;28;20435;-83
2023/04/10 00:56:48;;;;;;;0.40;0.40;;;;;;;7.47;100.00;99899.69;4978463;28;20125;-82
2023/04/10 00:59:14;;;;;;;0.40;0.40;;;;;;;7.42;100.00;99891.34;4978134;28;20498;-82
2023/04/10 01:01:40;;;;;;;0.40;0.40;;;;;;;7.32;100.00;99887.25;4978146;28;20038;-82
2023/04/10 01:04:06;;;;;;;0.40;0.40;;;;;;;7.36;100.00;99886.72;4993957;28;20118;-81
2023/04/10 01:06:47;;;;;;;0.35;0.35;;;;;;;7.42;100.00;99894.03;4995328;28;20113;-82
2023/04/10 01:09:34;;;;;;;0.30;0.30;;;;;;;7.52;100.00;99895.66;4994034;28;20034;-82
2023/04/10 01:12:32;;;;;;;0.40;0.40;;;;;;;7.66;100.00;99887.69;4994041;28;20031;-82
2023/04/10 01:15:03;;;;;;;0.40;0.40;;;;;;;7.79;100.00;99881.75;4994385;28;20038;-82
2023/04/10 01:17:31;;;;;;;0.40;0.40;;;;;;;7.94;100.00;99889.84;5010413;28;20031;-82
2023/04/10 01:20:11;;;;;;;0.30;0.30;;;;;;;8.01;100.00;99895.28;4994009;28;20436;-81
2023/04/10 01:22:45;;;;;;;0.30;0.30;;;;;;;7.96;100.00;99898.50;4994850;28;20105;-82
2023/04/10 01:25:14;;;;;;;;;;;;;;;7.87;100.00;99888.88;5010623;28;20030;-80
2023/04/10 01:28:14;;;;;;;0.30;0.30;;;;;;;7.84;100.00;99886.56;4994048;28;19921;-82
2023/04/10 01:30:41;;;;;;;0.30;0.30;;;;;;;7.84;100.00;99892.75;4993300;28;20099;-84
2023/04/10 01:33:11;;;;;;;0.40;0.40;;;;;;;7.84;100.00;99894.59;4977297;28;20113;-81
2023/04/10 01:35:37;;;;;;;0.40;0.40;;;;;;;7.72;100.00;99886.13;4993932;28;20062;-85
2023/04/10 01:38:04;;;;;;;0.40;0.40;;;;;;;7.74;100.00;99899.34;4994017;28;20073;-82
2023/04/10 01:40:30;;;;;;;0.40;0.40;;;;;;;7.63;100.00;99896.06;4993811;28;20031;-83
2023/04/10 01:42:57;;;;;;;0.30;0.30;;;;;;;7.54;100.00;99893.63;4977447;28;20523;-83
2023/04/10 01:45:30;;;;;;;0.40;0.40;;;;;;;7.39;100.00;99886.38;4977547;28;20030;-83
2023/04/10 01:47:56;;;;;;;0.40;0.40;;;;;;;7.18;100.00;99883.50;4993589;28;20034;-82
2023/04/10 01:50:23;;;;;;;0.30;0.30;;;;;;;6.99;100.00;99874.06;4993581;28;20510;-82
2023/04/10 01:52:50;;;;;;;0.40;0.40;;;;;;;6.96;100.00;99879.72;4993789;28;20038;-83
2023/04/10 01:55:16;;;;;;;0.40;0.40;;;;;;;6.86;100.00;99879.97;4977496;28;20041;-82
2023/04/10 01:57:42;;;;;;;0.40;0.40;;;;;;;6.81;100.00;99876.97;4993502;28;20541;-82
2023/04/10 02:00:08;;;;;;;0.40;0.40;;;;;;;6.70;100.00;99864.00;4993640;28;20034;-82
2023/04/10 02:02:34;;;;;;;0.40;0.40;;;;;;;6.63;100.00;99873.69;4977466;28;20034;-82
2023/04/10 02:05:00;;;;;;;0.40;0.40;;;;;;;6.61;100.00;99876.53;4961156;28;20092;-82
2023/04/10 02:07:33;;;;;;;0.30;0.30;;;;;;;6.59;100.00;99876.72;5009011;28;20032;-82
2023/04/10 02:10:10;;;;;;;0.50;0.50;;;;;;;6.52;100.00;99881.06;5009101;28;20026;-82
2023/04/10 02:12:41;;;;;;;0.45;0.45;;;;;;;6.48;100.00;99874.38;4961611;28;20045;-83
2023/04/10 02:15:08;;;;;;;0.40;0.40;;;;;;;6.38;100.00;99865.75;4993509;28;20034;-83
2023/04/10 02:17:37;;;;;;;0.40;0.40;;;;;;;6.31;100.00;99864.75;5009516;28;20030;-83
2023/04/10 02:20:05;;;;;;;0.40;0.40;;;;;;;6.23;100.00;99854.09;4993135;28;20025;-82
2023/04/10 02:22:31;;;;;;;0.40;0.40;;;;;;;6.28;100.00;99865.13;4977252;28;20042;-81
2023/04/10 02:24:57;;;;;;;0.40;0.40;;;;;;;6.23;100.00;99859.44;4977154;28;20034;-81
2023/04/10 02:27:30;;;;;;;0.40;0.40;;;;;;;6.16;100.00;99848.59;5009559;28;20037;-82
2023/04/10 02:29:56;;;;;;;0.40;0.40;;;;;;;6.36;100.00;99867.75;4977037;28;20034;-81
2023/04/10 02:32:22;;;;;;;0.40;0.40;;;;;;;6.30;100.00;99853.25;4993158;28;20038;-81
2023/04/10 02:34:50;;;;;;;0.40;0.40;;;;;;;6.40;100.00;99863.72;4993127;28;20096;-82
2023/04/10 02:37:16;;;;;;;0.40;0.40;;;;;;;6.33;100.00;99846.75;4977027;28;20427;-81
2023/04/10 02:39:42;;;;;;;0.40;0.40;;;;;;;6.43;100.00;99862.56;5009314;28;20160;-81
2023/04/10 02:42:08;;;;;;;0.30;0.30;;;;;;;6.49;100.00;99854.72;4993209;28;20428;-81
2023/04/10 02:44:33;;;;;;;0.40;0.40;;;;;;;6.56;100.00;99847.69;4993973;28;20034;-82
2023/04/10 02:47:01;;;;;;;0.40;0.40;;;;;;;6.64;100.00;99844.13;4993988;28;20034;-82
2023/04/10 02:49:29;;;;;;;0.40;0.40;;;;;;;6.82;100.00;99857.25;5008910;28;20076;-80
2023/04/10 02:51:55;;;;;;;0.40;0.40;;;;;;;6.87;100.00;99857.56;4994040;28;20033;-81
2023/04/10 02:54:21;;;;;;;0.40;0.40;;;;;;;6.89;100.00;99846.72;4992922;28;20026;-82
2023/04/10 02:56:47;;;;;;;0.52;0.52;;;;;;;6.88;100.00;99851.22;5008841;28;20034;-81
2023/04/10 02:59:13;;;;;;;0.40;0.40;;;;;;;7.00;100.00;99859.69;5009093;28;20035;-81
2023/04/10 03:01:40;;;;;;;0.40;0.40;;;;;;;6.96;100.00;99853.88;4993997;28;20066;-81
2023/04/10 03:04:06;;;;;;;0.40;0.40;;;;;;;6.86;100.00;99839.88;4993906;28;20113;-81
2023/04/10 03:06:33;;;;;;;0.40;0.40;;;;;;;6.82;100.00;99836.69;4992832;28;20055;-81
2023/04/10 03:08:59;;;;;;;0.40;0.40;;;;;;;6.82;100.00;99820.66;4992813;28;20039;-81
2023/04/10 03:11:26;;;;;;;0.40;0.40;;;;;;;6.85;100.00;99819.50;4992878;28;20034;-81
2023/04/10 03:13:51;;;;;;;0.40;0.40;;;;;;;6.77;100.00;99817.72;5008812;28;20034;-82
2023/04/10 03:16:17;;;;;;;0.40;0.40;;;;;;;6.65;100.00;99818.28;4976693;28;20042;-81
2023/04/10 03:18:44;;;;;;;0.40;0.40;;;;;;;6.52;100.00;99810.81;5012247;28;20022;-82
2023/04/10 03:21:10;;;;;;;0.40;0.40;;;;;;;6.54;100.00;99828.31;4996106;28;20084;-81
2023/04/10 03:23:37;;;;;;;0.40;0.40;;;;;;;6.51;100.00;99828.66;4995944;28;20026;-81
2023/04/10 03:26:03;;;;;;;0.40;0.40;;;;;;;6.52;100.00;99824.16;5012098;28;20034;-82
2023/04/10 03:28:29;;;;;;;0.40;0.40;;;;;;;6.48;100.00;99809.47;5012262;28;20080;-82
2023/04/10 03:30:55;;;;;;;0.40;0.40;;;;;;;6.47;100.00;99811.31;4997101;28;20042;-82
2023/04/10 03:33:21;;;;;;;0.40;0.40;;;;;;;6.47;100.00;99808.63;4980081;28;20057;-81
2023/04/10 03:35:47;;;;;;;0.50;0.50;;;;;;;6.41;100.00;99796.00;4996023;28;20026;-82
2023/04/10 03:38:13;;;;;;;0.40;0.40;;;;;;;6.39;100.00;99808.66;4995752;28;20439;-82
2023/04/10 03:40:38;;;;;;;0.40;0.40;;;;;;;6.35;100.00;99802.00;4996050;28;20030;-81
2023/04/10 03:43:04;;;;;;;0.40;0.40;;;;;;;6.36;100.00;99809.03;4995775;28;20039;-81
2023/04/10 03:45:30;;;;;;;0.40;0.40;;;;;;;6.33;100.00;99809.38;5012202;28;20030;-83
2023/04/10 03:47:56;;;;;;;0.40;0.40;;;;;;;6.33;100.00;99810.19;4996583;28;20041;-81
2023/04/10 03:50:21;;;;;;;0.40;0.40;;;;;;;6.31;100.00;99804.19;4995751;28;20038;-83
2023/04/10 03:52:48;;;;;;;0.40;0.40;;;;;;;6.32;100.00;99808.50;4995538;28;20427;-81
2023/04/10 03:55:17;;;;;;;0.40;0.40;;;;;;;6.28;100.00;99793.84;4995879;28;20038;-81
2023/04/10 03:57:47;;;;;;;0.40;0.40;;;;;;;6.33;100.00;99785.34;5011234;28;20027;-81
2023/04/10 04:00:14;;;;;;;0.40;0.40;;;;;;;6.41;100.00;99796.00;4995331;28;20076;-83
2023/04/10 04:02:40;;;;;;;0.40;0.40;;;;;;;6.40;100.00;99804.97;4979328;28;20121;-81
2023/04/10 04:05:07;;;;;;;0.50;0.50;;;;;;;6.42;100.00;99792.31;4995598;28;20177;-82
2023/04/10 04:07:32;;;;;;;0.40;0.40;;;;;;;6.44;100.00;99784.97;4995527;28;20037;-82
2023/04/10 04:09:59;;;;;;;0.40;0.40;;;;;;;6.44;100.00;99782.28;5011367;28;20026;-81
2023/04/10 04:12:25;;;;;;;0.40;0.40;;;;;;;6.49;100.00;99795.13;4979547;28;20038;-81
2023/04/10 04:14:50;;;;;;;0.40;0.40;;;;;;;6.49;100.00;99792.47;4995321;28;20088;-81
2023/04/10 04:17:19;;;;;;;0.40;0.40;;;;;;;6.47;100.00;99789.94;4995362;28;20095;-81
2023/04/10 04:19:45;;;;;;;0.40;0.40;;;;;;;6.46;100.00;99777.63;4979049;28;20038;-81
2023/04/10 04:22:11;;;;;;;0.40;0.40;;;;;;;6.42;100.00;99778.94;5011537;28;20066;-82
2023/04/10 04:24:39;;;;;;;0.40;0.40;;;;;;;6.42;100.00;99767.44;4995173;28;20038;-81
2023/04/10 04:27:07;;;;;;;0.40;0.40;;;;;;;6.47;100.00;99778.44;4996122;28;20129;-81
2023/04/10 04:29:33;;;;;;;0.40;0.40;;;;;;;6.52;100.00;99774.25;5010056;28;20041;-82
2023/04/10 04:32:01;;;;;;;0.40;0.40;;;;;;;6.51;100.00;99779.75;4995932;28;20396;-81
2023/04/10 04:34:27;;;;;;;0.40;0.40;;;;;;;6.39;100.00;99766.78;4996184;28;20027;-81
2023/04/10 04:36:52;;;;;;;0.40;0.40;;;;;;;6.43;100.00;99772.63;4995216;28;20038;-82
2023/04/10 04:39:19;;;;;;;0.32;0.32;;;;;;;6.41;100.00;99777.28;4994888;28;20391;-81
2023/04/10 04:41:45;;;;;;;0.30;0.30;;;;;;;6.40;100.00;99778.28;4995805;28;20203;-82
2023/04/10 04:44:10;;;;;;;0.40;0.40;;;;;;;6.39;100.00;99780.13;4978777;28;20591;-81
2023/04/10 04:46:36;;;;;;;0.40;0.40;;;;;;;6.42;100.00;99786.13;4994420;28;20030;-82
2023/04/10 04:49:04;;;;;;;0.40;0.40;;;;;;;6.39;100.00;99777.47;5010780;28;20030;-82
2023/04/10 04:51:29;;;;;;;0.40;0.40;;;;;;;6.39;100.00;99773.97;4995884;28;20033;-82
2023/04/10 04:53:55;;;;;;;0.40;0.40;;;;;;;6.39;100.00;99776.63;4995887;28;20027;-81
2023/04/10 04:56:23;;;;;;;0.40;0.40;;;;;;;6.36;100.00;99772.47;4994650;28;20034;-81
2023/04/10 04:58:48;;;;;;;0.40;0.40;;;;;;;6.30;100.00;99770.50;5010238;28;20392;-82
2023/04/10 05:01:14;;;;;;;0.40;0.40;;;;;;;6.23;100.00;99763.34;4994291;28;20022;-81
2023/04/10 05:03:40;;;;;;;0.40;0.40;;;;;;;6.23;100.00;99760.69;4994491;28;20034;-81
2023/04/10 05:06:06;;;;;;;0.40;0.40;;;;;;;6.24;100.00;99757.00;4994617;28;20045;-81
2023/04/10 05:08:31;;;;;;;0.40;0.40;;;;;;;6.28;100.00;99764.50;4994368;28;20053;-82
2023/04/10 05:10:57;;;;;;;0.50;0.50;;;;;;;6.25;100.00;99761.34;4995351;28;20026;-81
2023/04/10 05:13:22;;;;;;;0.40;0.40;;;;;;;6.20;100.00;99764.53;4994028;28;20052;-82
2023/04/10 05:15:48;;;;;;;0.40;0.40;;;;;;;6.16;100.00;99761.34;4993942;28;20118;-81
2023/04/10 05:18:18;;;;;;;0.30;0.30;;;;;;;6.19;100.00;99775.34;4977873;28;20121;-83
2023/04/10 05:20:46;;;;;;;0.43;0.43;;;;;;;6.21;100.00;99768.00;4994253;28;20038;-82
2023/04/10 05:23:11;;;;;;;0.40;0.40;;;;;;;6.12;100.00;99740.53;4978028;28;20125;-81
2023/04/10 05:25:37;;;;;;;0.40;0.40;;;;;;;6.14;100.00;99757.22;4993650;28;20118;-82
2023/04/10 05:28:03;;;;;;;0.40;0.40;;;;;;;6.12;100.00;99744.03;4993974;28;20034;-82
2023/04/10 05:30:33;;;;;;;0.40;0.40;;;;;;;5.99;100.00;99725.06;4993632;28;20579;-83
2023/04/10 05:32:59;;;;;;;0.40;0.40;;;;;;;6.04;100.00;99741.38;4993968;28;20042;-81
2023/04/10 05:35:25;;;;;;;0.40;0.40;;;;;;;6.03;100.00;99750.38;4995039;28;20031;-81
2023/04/10 05:37:53;;;;;;;0.40;0.40;;;;;;;6.04;100.00;99745.91;4993408;28;20435;-82
2023/04/10 05:40:19;;;;;;;0.40;0.40;;;;;;;6.03;100.00;99750.38;5010151;28;20460;-81
2023/04/10 05:42:45;;;;;;;0.40;0.40;;;;;;;6.07;100.00;99754.38;4977802;28;20033;-81
2023/04/10 05:45:13;;;;;;;0.40;0.40;;;;;;;6.13;100.00;99756.34;4993889;28;20033;-82
2023/04/10 05:47:39;;;;;;;0.40;0.40;;;;;;;6.20;100.00;99758.34;5009730;28;20037;-81
2023/04/10 05:50:05;;;;;;;0.47;0.47;;;;;;;6.24;100.00;99767.66;5009865;28;20034;-82
2023/04/10 05:52:31;;;;;;;0.40;0.40;;;;;;;6.22;100.00;99770.53;4993840;28;20061;-82
2023/04/10 05:54:59;;;;;;;0.45;0.45;;;;;;;6.26;100.00;99779.00;4993637;28;20112;-82
2023/04/10 05:57:25;;;;;;;0.40;0.40;;;;;;;6.23;100.00;99764.16;4977450;28;20030;-82
2023/04/10 05:59:51;;;;;;;0.40;0.40;;;;;;;6.24;100.00;99759.66;4993521;28;20053;-81
2023/04/10 06:02:17;;;;;;;0.40;0.40;;;;;;;6.31;100.00;99765.97;5009873;28;20030;-81
2023/04/10 06:04:44;;;;;;;0.40;0.40;;;;;;;6.33;100.00;99764.81;5009390;28;20395;-82
2023/04/10 06:07:09;;;;;;;0.40;0.40;;;;;;;6.35;100.00;99756.59;5009275;28;20034;-82
2023/04/10 06:09:35;;;;;;;0.40;0.40;;;;;;;6.35;100.00;99772.63;4993245;28;20042;-80
2023/04/10 06:12:01;;;;;;;0.40;0.40;;;;;;;6.25;100.00;99764.00;4994152;28;20423;-81
2023/04/10 06:14:28;;;;;;;0.40;0.40;;;;;;;6.28;100.00;99777.84;4977237;28;20473;-82
2023/04/10 06:16:54;;;;;;;0.40;0.40;;;;;;;6.27;100.00;99776.19;4993007;28;20468;-81
2023/04/10 06:19:20;;;;;;;0.40;0.40;;;;;;;6.26;100.00;99777.16;4976955;28;20074;-81
2023/04/10 06:21:45;;;;;;;0.40;0.40;;;;;;;6.29;100.00;99776.81;4976983;28;20037;-81
2023/04/10 06:24:12;;;;;;;0.40;0.40;;;;;;;6.31;100.00;99777.50;4994034;28;20030;-81
2023/04/10 06:26:38;;;;;;;0.40;0.40;;;;;;;6.29;100.00;99776.00;4993178;28;20030;-81
2023/04/10 06:29:03;;;;;;;0.40;0.40;;;;;;;6.38;100.00;99775.81;5009430;28;20038;-81
2023/04/10 06:31:32;;;;;;;0.40;0.40;;;;;;;6.43;100.00;99793.13;4961091;28;20480;-81
2023/04/10 06:33:57;;;;;;;0.40;0.40;;;;;;;6.49;100.00;99790.63;4977094;28;20064;-80
2023/04/10 06:36:26;;;;;;;0.40;0.40;;;;;;;6.59;100.00;99796.59;4993257;28;20536;-80
2023/04/10 06:38:52;;;;;;;0.50;0.50;;;;;;;6.64;100.00;99803.22;5008943;28;20033;-81
2023/04/10 06:41:17;;;;;;;0.40;0.40;;;;;;;6.67;100.00;99797.53;4992897;28;20038;-82
2023/04/10 06:43:44;;;;;;;0.40;0.40;;;;;;;6.70;100.00;99786.53;4993149;28;20034;-81
2023/04/10 06:46:10;;;;;;;0.40;0.40;;;;;;;6.77;100.00;99796.34;4993223;28;20058;-82
2023/04/10 06:48:36;;;;;;;0.40;0.40;;;;;;;6.84;100.00;99799.13;4992555;28;20061;-81
2023/04/10 06:51:01;;;;;;;0.40;0.40;;;;;;;6.83;100.00;99800.97;5008928;28;20396;-81
2023/04/10 06:53:28;;;;;;;0.40;0.40;;;;;;;6.80;100.00;99798.66;5011938;28;20451;-82
2023/04/10 06:55:53;;;;;;;0.40;0.40;;;;;;;6.68;100.00;99794.69;4980819;28;20049;-79
2023/04/10 06:58:19;;;;;;;0.40;0.40;;;;;;;6.54;100.00;99798.94;4997930;28;20030;-80
2023/04/10 07:00:46;;;;;;;0.50;0.50;;;;;;;6.42;100.00;99797.66;5012843;28;20118;-81
2023/04/10 07:03:11;;;;;;;0.40;0.40;;;;;;;6.35;100.00;99794.84;4980143;28;20113;-80
2023/04/10 07:05:37;;;;;;;0.40;0.40;;;;;;;6.36;100.00;99779.66;4996311;28;20499;-80
2023/04/10 07:08:04;;;;;;;0.40;0.40;;;;;;;6.48;100.00;99786.25;4996650;28;20030;-81
2023/04/10 07:10:30;;;;;;;0.47;0.47;;;;;;;6.54;100.00;99780.25;5012409;28;20034;-80
2023/04/10 07:12:57;;;;;;;0.40;0.40;;;;;;;6.70;100.00;99786.53;4996529;28;20041;-81
2023/04/10 07:15:24;;;;;;;0.40;0.40;;;;;;;6.79;100.00;99783.63;4980283;28;20030;-81
2023/04/10 07:17:50;;;;;;;0.40;0.40;;;;;;;6.92;100.00;99779.56;4996494;28;20042;-81
2023/04/10 07:20:16;;;;;;;0.40;0.40;;;;;;;6.93;100.00;99774.03;4996300;28;20035;-82
2023/04/10 07:22:42;;;;;;;0.40;0.40;;;;;;;6.92;100.00;99775.03;4980231;28;20026;-81
2023/04/10 07:25:08;;;;;;;0.40;0.40;;;;;;;6.87;100.00;99774.72;4964359;28;20038;-81
2023/04/10 07:27:33;;;;;;;0.40;0.40;;;;;;;6.81;100.00;99778.94;5012604;28;20058;-80
2023/04/10 07:30:01;;;;;;;0.40;0.40;;;;;;;6.70;100.00;99762.47;4997385;28;20027;-82
2023/04/10 07:32:27;;;;;;;0.60;0.60;;;;;;;7.67;100.00;99768.97;4995934;28;20475;-81
2023/04/10 07:34:53;;;;;;;0.50;0.50;;;;;;;9.73;100.00;99770.63;4996161;28;20070;-80
2023/04/10 07:37:18;;;;;;;0.50;0.50;;;;;;;11.05;100.00;99771.56;4996341;28;20088;-81
2023/04/10 07:39:44;;;;;;;0.50;0.50;;;;;;;10.73;100.00;99774.75;5011320;28;20372;-81
2023/04/10 07:42:10;;;;;;;0.50;0.50;;;;;;;10.92;100.00;99773.16;4977552;28;20384;-82
2023/04/10 07:44:36;;;;;;;0.40;0.40;;;;;;;10.88;100.00;99766.53;4993907;28;20026;-83
2023/04/10 07:47:02;;;;;;;0.40;0.40;;;;;;;10.57;100.00;99767.88;4993892;28;20041;-82
2023/04/10 07:49:27;;;;;;;0.40;0.40;;;;;;;10.17;100.00;99771.34;4977319;28;20034;-82
2023/04/10 07:51:53;;;;;;;0.40;0.40;;;;;;;9.99;100.00;99766.47;4993335;28;20077;-82
2023/04/10 07:54:19;;;;;;;0.40;0.40;;;;;;;9.66;100.00;99764.38;4994947;28;20384;-82
2023/04/10 07:56:44;;;;;;;0.50;0.50;;;;;;;9.15;100.00;99759.16;4995861;28;20031;-81
2023/04/10 07:59:10;;;;;;;0.60;0.60;;;;;;;11.37;100.00;99759.19;5011744;28;20104;-82
2023/04/10 08:01:36;;;;;;;0.60;0.60;;;;;;;13.18;100.00;99769.38;4995410;28;20037;-83
2023/04/10 08:04:01;;;;;;;0.60;0.60;;;;;;;14.24;99.11;99767.69;4995459;28;20113;-83
2023/04/10 08:06:37;;;;;;;0.60;0.60;;;;;;;13.88;100.00;99774.69;4979572;28;20415;-83
2023/04/10 08:09:03;;;;;;;0.70;0.70;;;;;;;15.05;95.17;99784.63;4963154;28;20555;-83
2023/04/10 08:11:35;;;;;;;0.50;0.50;;;;;;;14.59;95.24;99784.19;4996112;28;20117;-83
2023/04/10 08:14:02;;;;;;;0.60;0.60;;;;;;;13.34;100.00;99789.66;4995013;28;20057;-83
2023/04/10 08:16:30;;;;;;;0.50;0.50;;;;;;;13.32;100.00;99775.53;4995193;28;20351;-83
2023/04/10 08:18:56;;;;;;;0.40;0.40;;;;;;;12.54;100.00;99781.88;4995327;28;20473;-83
2023/04/10 08:21:23;;;;;;;0.40;0.40;;;;;;;11.96;100.00;99773.72;4963361;28;20045;-82
2023/04/10 08:23:53;;;;;;;0.50;0.50;;;;;;;11.93;100.00;99785.72;4994739;28;20049;-82
2023/04/10 08:26:20;;;;;;;0.40;0.40;;;;;;;12.42;100.00;99783.59;4994929;28;20030;-81
2023/04/10 08:28:50;;;;;;;0.40;0.40;;;;;;;11.52;100.00;99788.63;5010806;28;20037;-83
2023/04/10 08:31:23;;;;;;;0.40;0.40;;;;;;;10.97;100.00;99781.47;4995246;28;20030;-81
2023/04/10 08:33:48;;;;;;;0.40;0.40;;;;;;;10.89;100.00;99772.75;4995219;28;20049;-83
2023/04/10 08:36:15;;;;;;;0.40;0.40;;;;;;;10.71;100.00;99754.47;4996553;28;20038;-81
2023/04/10 08:38:41;;;;;;;0.50;0.50;;;;;;;12.75;100.00;99768.13;5010971;28;20034;-83
2023/04/10 08:41:11;;;;;;;0.50;0.50;;;;;;;12.12;100.00;99777.84;4978191;28;20357;-82
2023/04/10 08:43:37;;;;;;;0.40;0.40;;;;;;;12.13;100.00;99774.94;4978499;28;20081;-83
2023/04/10 08:46:03;;;;;;;0.50;0.50;;;;;;;11.68;100.00;99788.22;4962939;28;20038;-83
2023/04/10 08:48:57;;;;;;;0.50;0.50;;;;;;;11.98;100.00;99790.50;4978515;28;20081;-82
2023/04/10 08:51:27;;;;;;;0.40;0.40;;;;;;;11.29;100.00;99783.59;5010593;28;20034;-81
2023/04/10 08:53:57;;;;;;;0.40;0.40;;;;;;;10.71;100.00;99770.59;4994688;28;20034;-82
2023/04/10 08:56:23;;;;;;;0.40;0.40;;;;;;;10.19;100.00;99793.44;4994495;28;20026;-80
2023/04/10 08:58:50;;;;;;;0.40;0.40;;;;;;;9.74;100.00;99792.91;5011737;28;20046;-81
2023/04/10 09:01:16;;;;;;;0.40;0.40;;;;;;;9.32;100.00;99789.25;5000512;28;20040;-80
2023/04/10 09:03:41;;;;;;;1.05;0.50;;;;;;;8.92;100.00;99797.72;5034067;28;20006;-81
2023/04/10 09:06:07;;;;;;;0.40;0.40;;;;;;;8.61;100.00;99795.25;5017220;28;20121;-82
2023/04/10 09:08:33;;;;;;;0.40;0.40;;;;;;;8.58;100.00;99799.16;5001642;28;20035;-81
2023/04/10 09:10:59;;;;;;;0.65;0.60;;;;;;;8.74;100.00;99803.47;5017920;28;20037;-81
2023/04/10 09:13:36;;;;;;;0.50;0.50;;;;;;;8.98;100.00;99794.25;5018847;28;20022;-81
2023/04/10 09:16:01;;;;;;;0.50;0.50;;;;;;;9.27;100.00;99815.81;5011296;28;20041;-82
2023/04/10 09:18:48;;;;;;;0.45;0.45;;;;;;;9.58;100.00;99805.59;4994533;28;20014;-81
2023/04/10 09:21:18;;;;;;;0.50;0.50;;;;;;;9.89;100.00;99807.09;4995134;28;20026;-82
2023/04/10 09:23:45;;;;;;;0.40;0.40;;;;;;;9.94;100.00;99810.03;5010171;28;20038;-81
2023/04/10 09:26:27;;;;;;;0.40;0.40;;;;;;;9.73;100.00;99808.19;4993930;28;20182;-81
2023/04/10 09:29:03;;;;;;;0.40;0.40;;;;;;;9.55;100.00;99814.06;4978016;28;20046;-83
2023/04/10 09:31:32;;;;;;;0.50;0.50;;;;;;;9.43;100.00;99804.84;4994056;28;20038;-76
2023/04/10 09:34:08;;;;;;;0.50;0.50;;;;;;;9.38;100.00;99804.59;4994509;28;20034;-77
2023/04/10 09:36:35;;;;;;;0.40;0.40;;;;;;;9.36;100.00;99809.31;4977917;28;20093;-82
2023/04/10 09:39:01;;;;;;;0.40;0.40;;;;;;;9.37;100.00;99803.75;4977740;28;20061;-83
2023/04/10 09:41:27;;;;;;;0.40;0.40;;;;;;;9.39;100.00;99800.88;4994337;28;20026;-87
2023/04/10 09:44:07;;;;;;;0.50;0.50;;;;;;;10.01;100.00;99813.59;4995650;28;20139;-87
2023/04/10 09:46:36;;;;;;;0.70;0.70;;;;;;;11.64;100.00;99789.66;4994100;28;20041;-90
2023/04/10 09:49:04;;;;;;;0.90;0.90;;;;;;;15.53;99.84;99808.97;4993570;28;20077;-89
2023/04/10 09:51:31;;;;;;;0.60;0.60;;;;;;;17.14;88.51;99813.16;4993813;28;20038;-90
2023/04/10 09:53:57;;;;;;;0.70;0.70;;;;;;;16.20;93.28;99818.75;5009932;28;20034;-88
2023/04/10 09:56:25;;;;;;;0.90;0.90;;;;;;;16.62;94.84;99838.44;4993447;28;20384;-88
2023/04/10 09:58:52;;;;;;;0.30;0.30;;;;;;;15.31;99.86;99853.88;4977178;28;20512;-88
2023/04/10 10:01:19;;;;;;;0.30;0.30;;;;;;;12.36;100.00;99886.84;4993274;28;20027;-87
2023/04/10 10:03:45;;;;;;;0.35;0.35;;;;;;;9.56;100.00;99857.81;5009325;28;20461;-87
2023/04/10 10:06:11;;;;;;;0.30;0.30;;;;;;;8.03;100.00;99875.34;4977166;28;20039;-88
2023/04/10 10:08:39;;;;;;;0.40;0.40;;;;;;;7.22;100.00;99872.28;4992923;28;20065;-86
2023/04/10 10:11:08;;;;;;;0.40;0.40;;;;;;;6.93;100.00;99859.56;4993232;28;20061;-86
2023/04/10 10:13:42;;;;;;;0.40;0.40;;;;;;;7.04;100.00;99869.84;4993741;28;20034;-85
2023/04/10 10:16:14;;;;;;;0.40;0.40;;;;;;;7.11;100.00;99864.63;4993912;28;20030;-87
2023/04/10 10:18:54;;;;;;;0.40;0.40;;;;;;;7.34;100.00;99862.00;4993325;28;20034;-87
2023/04/10 10:21:20;;;;;;;0.60;0.60;;;;;;;9.22;100.00;99865.50;4993847;28;20472;-85
2023/04/10 10:23:52;;;;;;;0.90;0.90;;;;;;;13.11;100.00;99860.34;4993311;28;20038;-86
2023/04/10 10:26:18;;;;;;;0.80;0.80;;;;;;;14.77;94.70;99856.41;4977386;28;20062;-87
2023/04/10 10:28:45;;;;;;;0.80;0.80;;;;;;;17.25;86.47;99860.38;4993812;28;20062;-87
2023/04/10 10:31:11;;;;;;;0.80;0.80;;;;;;;18.89;85.37;99861.19;4976743;28;20037;-87
2023/04/10 10:33:37;;;;;;;0.88;0.88;;;;;;;19.42;80.76;99846.03;4993231;28;20034;-87
2023/04/10 10:36:03;;;;;;;0.80;0.80;;;;;;;20.33;76.95;99847.13;4992625;28;20465;-88
2023/04/10 10:38:30;;;;;;;0.50;0.50;;;;;;;19.62;75.30;99853.59;4993284;28;20046;-88
2023/04/10 10:41:07;;;;;;;0.40;0.40;;;;;;;16.13;88.35;99843.25;4992810;28;20536;-88
2023/04/10 10:43:33;;;;;;;0.50;0.50;;;;;;;14.37;97.22;99855.94;4977017;28;20038;-88
2023/04/10 10:45:58;;;;;;;0.88;0.88;;;;;;;15.77;92.87;99863.22;4995009;28;20033;-87
2023/04/10 10:48:24;;;;;;;0.50;0.50;;;;;;;17.28;89.63;99859.88;4994062;28;20037;-88
2023/04/10 10:50:55;;;;;;;0.70;0.70;;;;;;;18.45;87.41;99859.22;4977620;28;20050;-87
2023/04/10 10:53:44;;;;;;;0.50;0.50;;;;;;;16.87;87.73;99854.47;4997314;28;20543;-86
2023/04/10 10:56:18;;;;;;;0.50;0.50;;;;;;;15.21;94.43;99857.09;4999247;28;20041;-88
2023/04/10 10:58:56;;;;;;;0.70;0.70;;;;;;;16.96;88.18;99845.94;4993167;28;20034;-88
2023/04/10 11:01:27;;;;;;;0.50;0.50;;;;;;;16.47;88.30;99816.38;4961483;28;20468;-88
2023/04/10 11:03:56;;;;;;;0.80;0.80;;;;;;;19.06;84.94;99845.63;4961365;28;20066;-89
2023/04/10 11:06:50;;;;;;;1.75;1.10;;;;;;;20.43;76.78;99839.03;4994174;28;20114;-87
2023/04/10 11:09:49;;;;;;;2.05;0.80;;;;;;;17.83;82.32;99842.16;4976857;28;20081;-89
2023/04/10 11:12:17;;;;;;;1.08;0.52;;;;;;;15.63;92.10;99848.22;4935161;28;20089;-88
2023/04/10 11:14:44;;;;;;;0.63;0.60;;;;;;;13.80;100.00;99864.13;4976872;28;20030;-88
2023/04/10 11:17:10;;;;;;;0.70;0.52;;;;;;;12.67;100.00;99837.66;4976883;28;20480;-88
2023/04/10 11:19:58;;;;;;;0.52;0.52;;;;;;;12.43;100.00;99856.16;4977226;28;20051;-87
2023/04/10 11:22:24;;;;;;;2.47;1.40;;;;;;;15.32;100.00;99850.94;4977341;28;20041;-88
2023/04/10 11:24:56;;;;;;;6.07;4.10;;;;;;;16.76;95.20;99865.31;4995190;28;20034;-89
2023/04/10 11:27:51;;;;;;;1.52;1.05;;;;;;;16.50;97.63;99864.75;4985541;28;20034;-89
2023/04/10 11:30:35;;;;;;;1.90;0.50;;;;;;;14.78;97.28;99884.28;4994652;28;20045;-87
2023/04/10 11:33:02;;;;;;;18.42;3.95;;;;;;;11.66;93.56;99935.69;5005125;28;20038;-85
2023/04/10 11:35:30;;;;;;;0.50;0.50;;;;;;;8.58;100.00;99917.03;4965091;28;20034;-86